Brannan Island, California
Current Conditions -  °F | °C
As of 10:58 PM on Tuesday 25 Nov 2014 (Local Time) from KSUU Reporting Station
Haze Haze  
Wind Chill: 44°   Ceiling: Unl
Heat Index: 44°   Visibility: 5mi
Dew Point: 44°   Wind: 2mph
Humidity: 99%   Direction: 80°E
Pressure: 30.36"   Gusts: NA
Location:  38.1457°N, 121.624°W
Report Text: KSUU 260658Z AUTO 08002KT 5SM BR CLR 07/07 A3036 RMK AO2 VIS 1 3/4 RWY03R SLP288 T00680067 $
Loading
Personal Weather Stations






























Interactive Weather Map New forecast layout! Learn more

10-Day Weather Forecast

Advertisements
Track Severe Weather on mobile